sensor_id;sensor_type;location;lat;lon;timestamp;temperature;humidity
11497;DHT22;5805;51.542;7.230;2023-08-21T00:02:02;21.30;99.90
11497;DHT22;5805;51.542;7.230;2023-08-21T00:04:28;21.20;99.90
11497;DHT22;5805;51.542;7.230;2023-08-21T00:06:54;21.30;99.90
11497;DHT22;5805;51.542;7.230;2023-08-21T00:09:19;21.30;99.90
11497;DHT22;5805;51.542;7.230;2023-08-21T00:11:45;21.30;99.90
11497;DHT22;5805;51.542;7.230;2023-08-21T00:14:12;21.20;99.90
11497;DHT22;5805;51.542;7.230;2023-08-21T00:16:38;21.20;99.90
11497;DHT22;5805;51.542;7.230;2023-08-21T00:19:03;21.20;99.90
11497;DHT22;5805;51.542;7.230;2023-08-21T00:21:29;21.20;99.90
11497;DHT22;5805;51.542;7.230;2023-08-21T00:23:55;21.20;99.90
11497;DHT22;5805;51.542;7.230;2023-08-21T00:26:20;21.10;99.90
11497;DHT22;5805;51.542;7.230;2023-08-21T00:28:46;21.20;99.90
11497;DHT22;5805;51.542;7.230;2023-08-21T00:31:13;21.20;99.90
11497;DHT22;5805;51.542;7.230;2023-08-21T00:33:39;21.10;99.90
11497;DHT22;5805;51.542;7.230;2023-08-21T00:36:05;21.10;99.90
11497;DHT22;5805;51.542;7.230;2023-08-21T00:38:30;21.20;99.90
11497;DHT22;5805;51.542;7.230;2023-08-21T00:40:56;21.10;99.90
11497;DHT22;5805;51.542;7.230;2023-08-21T00:43:22;21.10;99.90
11497;DHT22;5805;51.542;7.230;2023-08-21T00:45:50;21.00;99.90
11497;DHT22;5805;51.542;7.230;2023-08-21T00:48:17;21.00;99.90
11497;DHT22;5805;51.542;7.230;2023-08-21T00:50:44;20.90;99.90
11497;DHT22;5805;51.542;7.230;2023-08-21T00:53:10;21.00;99.90
11497;DHT22;5805;51.542;7.230;2023-08-21T00:55:37;21.00;99.90
11497;DHT22;5805;51.542;7.230;2023-08-21T00:58:04;21.00;99.90
11497;DHT22;5805;51.542;7.230;2023-08-21T01:00:30;21.00;99.90
11497;DHT22;5805;51.542;7.230;2023-08-21T01:02:56;20.90;99.90
11497;DHT22;5805;51.542;7.230;2023-08-21T01:05:23;20.90;99.90
11497;DHT22;5805;51.542;7.230;2023-08-21T01:07:57;20.80;99.90
11497;DHT22;5805;51.542;7.230;2023-08-21T01:10:33;20.80;99.90
11497;DHT22;5805;51.542;7.230;2023-08-21T01:13:08;20.80;99.90
11497;DHT22;5805;51.542;7.230;2023-08-21T01:15:36;20.80;99.90
11497;DHT22;5805;51.542;7.230;2023-08-21T01:18:03;20.80;99.90
11497;DHT22;5805;51.542;7.230;2023-08-21T01:20:31;20.80;99.90
11497;DHT22;5805;51.542;7.230;2023-08-21T01:22:57;20.80;99.90
11497;DHT22;5805;51.542;7.230;2023-08-21T01:25:25;20.80;99.90
11497;DHT22;5805;51.542;7.230;2023-08-21T01:27:51;20.80;99.90
11497;DHT22;5805;51.542;7.230;2023-08-21T01:30:17;20.80;99.90
11497;DHT22;5805;51.542;7.230;2023-08-21T01:32:58;20.80;99.90
11497;DHT22;5805;51.542;7.230;2023-08-21T01:35:25;20.80;99.90
11497;DHT22;5805;51.542;7.230;2023-08-21T01:37:51;20.80;99.90
11497;DHT22;5805;51.542;7.230;2023-08-21T01:40:21;20.80;99.90
11497;DHT22;5805;51.542;7.230;2023-08-21T01:42:48;20.80;99.90
11497;DHT22;5805;51.542;7.230;2023-08-21T01:45:14;20.80;99.90
11497;DHT22;5805;51.542;7.230;2023-08-21T01:47:40;20.80;99.90
11497;DHT22;5805;51.542;7.230;2023-08-21T01:50:06;20.80;99.90
11497;DHT22;5805;51.542;7.230;2023-08-21T01:52:32;20.80;99.90
11497;DHT22;5805;51.542;7.230;2023-08-21T01:54:58;20.70;99.90
11497;DHT22;5805;51.542;7.230;2023-08-21T01:57:24;20.70;99.90
11497;DHT22;5805;51.542;7.230;2023-08-21T01:59:51;20.70;99.90
11497;DHT22;5805;51.542;7.230;2023-08-21T02:02:17;20.60;99.90
11497;DHT22;5805;51.542;7.230;2023-08-21T02:04:42;20.60;99.90
11497;DHT22;5805;51.542;7.230;2023-08-21T02:07:08;20.60;99.90
11497;DHT22;5805;51.542;7.230;2023-08-21T02:09:34;20.60;99.90
11497;DHT22;5805;51.542;7.230;2023-08-21T02:11:59;20.60;99.90
11497;DHT22;5805;51.542;7.230;2023-08-21T02:14:25;20.60;99.90
11497;DHT22;5805;51.542;7.230;2023-08-21T02:16:52;20.60;99.90
11497;DHT22;5805;51.542;7.230;2023-08-21T02:19:18;20.50;99.90
11497;DHT22;5805;51.542;7.230;2023-08-21T02:21:44;20.50;99.90
11497;DHT22;5805;51.542;7.230;2023-08-21T02:24:09;20.50;99.90
11497;DHT22;5805;51.542;7.230;2023-08-21T02:26:35;20.50;99.90
11497;DHT22;5805;51.542;7.230;2023-08-21T02:29:00;20.50;99.90
11497;DHT22;5805;51.542;7.230;2023-08-21T02:31:26;20.50;99.90
11497;DHT22;5805;51.542;7.230;2023-08-21T02:33:53;20.40;99.90
11497;DHT22;5805;51.542;7.230;2023-08-21T02:36:19;20.40;99.90
11497;DHT22;5805;51.542;7.230;2023-08-21T02:38:45;20.30;99.90
11497;DHT22;5805;51.542;7.230;2023-08-21T02:41:10;20.30;99.90
11497;DHT22;5805;51.542;7.230;2023-08-21T02:43:36;20.30;99.90
11497;DHT22;5805;51.542;7.230;2023-08-21T02:46:02;20.30;99.90
11497;DHT22;5805;51.542;7.230;2023-08-21T02:48:27;20.30;99.90
11497;DHT22;5805;51.542;7.230;2023-08-21T02:50:54;20.30;99.90
11497;DHT22;5805;51.542;7.230;2023-08-21T02:53:20;20.30;99.90
11497;DHT22;5805;51.542;7.230;2023-08-21T02:55:46;20.30;99.90
11497;DHT22;5805;51.542;7.230;2023-08-21T02:58:12;20.20;99.90
11497;DHT22;5805;51.542;7.230;2023-08-21T03:00:37;20.30;99.90
11497;DHT22;5805;51.542;7.230;2023-08-21T03:03:03;20.30;99.90
11497;DHT22;5805;51.542;7.230;2023-08-21T03:05:29;20.20;99.90
11497;DHT22;5805;51.542;7.230;2023-08-21T03:07:56;20.20;99.90
11497;DHT22;5805;51.542;7.230;2023-08-21T03:10:22;20.20;99.90
11497;DHT22;5805;51.542;7.230;2023-08-21T03:12:48;20.30;99.90
11497;DHT22;5805;51.542;7.230;2023-08-21T03:15:13;20.20;99.90
11497;DHT22;5805;51.542;7.230;2023-08-21T03:17:39;20.20;99.90
11497;DHT22;5805;51.542;7.230;2023-08-21T03:20:06;20.20;99.90
11497;DHT22;5805;51.542;7.230;2023-08-21T03:22:31;20.10;99.90
11497;DHT22;5805;51.542;7.230;2023-08-21T03:24:58;20.10;99.90
11497;DHT22;5805;51.542;7.230;2023-08-21T03:27:24;20.00;99.90
11497;DHT22;5805;51.542;7.230;2023-08-21T03:29:50;20.10;99.90
11497;DHT22;5805;51.542;7.230;2023-08-21T03:32:16;20.10;99.90
11497;DHT22;5805;51.542;7.230;2023-08-21T03:34:42;20.10;99.90
11497;DHT22;5805;51.542;7.230;2023-08-21T03:37:08;20.00;99.90
11497;DHT22;5805;51.542;7.230;2023-08-21T03:39:34;20.00;99.90
11497;DHT22;5805;51.542;7.230;2023-08-21T03:42:01;20.10;99.90
11497;DHT22;5805;51.542;7.230;2023-08-21T03:44:26;20.10;99.90
11497;DHT22;5805;51.542;7.230;2023-08-21T03:46:52;20.10;99.90
11497;DHT22;5805;51.542;7.230;2023-08-21T03:49:18;20.10;99.90
11497;DHT22;5805;51.542;7.230;2023-08-21T03:51:44;20.10;99.90
11497;DHT22;5805;51.542;7.230;2023-08-21T03:54:10;20.00;99.90
11497;DHT22;5805;51.542;7.230;2023-08-21T03:56:35;19.90;99.90
11497;DHT22;5805;51.542;7.230;2023-08-21T03:59:03;19.90;99.90
11497;DHT22;5805;51.542;7.230;2023-08-21T04:01:28;19.90;99.90
11497;DHT22;5805;51.542;7.230;2023-08-21T04:03:54;20.00;99.90
11497;DHT22;5805;51.542;7.230;2023-08-21T04:06:20;20.00;99.90
11497;DHT22;5805;51.542;7.230;2023-08-21T04:08:45;19.90;99.90
11497;DHT22;5805;51.542;7.230;2023-08-21T04:11:11;19.90;99.90
11497;DHT22;5805;51.542;7.230;2023-08-21T04:13:37;19.90;99.90
11497;DHT22;5805;51.542;7.230;2023-08-21T04:16:04;19.90;99.90
11497;DHT22;5805;51.542;7.230;2023-08-21T04:18:29;19.90;99.90
11497;DHT22;5805;51.542;7.230;2023-08-21T04:20:55;19.80;99.90
11497;DHT22;5805;51.542;7.230;2023-08-21T04:23:21;19.90;99.90
11497;DHT22;5805;51.542;7.230;2023-08-21T04:25:46;19.80;99.90
11497;DHT22;5805;51.542;7.230;2023-08-21T04:28:12;19.80;99.90
11497;DHT22;5805;51.542;7.230;2023-08-21T04:30:40;19.80;99.90
11497;DHT22;5805;51.542;7.230;2023-08-21T04:33:07;19.90;99.90
11497;DHT22;5805;51.542;7.230;2023-08-21T04:35:36;19.90;99.90
11497;DHT22;5805;51.542;7.230;2023-08-21T04:38:02;19.90;99.90
11497;DHT22;5805;51.542;7.230;2023-08-21T04:40:28;19.90;99.90
11497;DHT22;5805;51.542;7.230;2023-08-21T04:42:54;19.90;99.90
11497;DHT22;5805;51.542;7.230;2023-08-21T04:45:19;19.90;99.90
11497;DHT22;5805;51.542;7.230;2023-08-21T04:47:45;19.80;99.90
11497;DHT22;5805;51.542;7.230;2023-08-21T04:50:12;19.90;99.90
11497;DHT22;5805;51.542;7.230;2023-08-21T04:52:38;19.90;99.90
11497;DHT22;5805;51.542;7.230;2023-08-21T04:55:05;19.80;99.90
11497;DHT22;5805;51.542;7.230;2023-08-21T04:57:31;19.90;99.90
11497;DHT22;5805;51.542;7.230;2023-08-21T04:59:57;19.90;99.90
11497;DHT22;5805;51.542;7.230;2023-08-21T05:02:23;20.00;99.90
11497;DHT22;5805;51.542;7.230;2023-08-21T05:04:48;20.00;99.90
11497;DHT22;5805;51.542;7.230;2023-08-21T05:07:15;20.10;99.90
11497;DHT22;5805;51.542;7.230;2023-08-21T05:09:41;20.10;99.90
11497;DHT22;5805;51.542;7.230;2023-08-21T05:12:07;20.20;99.90
11497;DHT22;5805;51.542;7.230;2023-08-21T05:14:33;20.20;99.90
11497;DHT22;5805;51.542;7.230;2023-08-21T05:16:59;20.30;99.90
11497;DHT22;5805;51.542;7.230;2023-08-21T05:19:24;20.50;99.90
11497;DHT22;5805;51.542;7.230;2023-08-21T05:21:50;20.70;99.90
11497;DHT22;5805;51.542;7.230;2023-08-21T05:24:17;20.80;99.90
11497;DHT22;5805;51.542;7.230;2023-08-21T05:26:43;20.80;99.90
11497;DHT22;5805;51.542;7.230;2023-08-21T05:29:09;20.70;99.90
11497;DHT22;5805;51.542;7.230;2023-08-21T05:31:34;20.70;99.90
11497;DHT22;5805;51.542;7.230;2023-08-21T05:34:00;20.70;99.90
11497;DHT22;5805;51.542;7.230;2023-08-21T05:36:26;20.70;99.90
11497;DHT22;5805;51.542;7.230;2023-08-21T05:38:51;20.60;99.90
11497;DHT22;5805;51.542;7.230;2023-08-21T05:41:18;20.60;99.90
11497;DHT22;5805;51.542;7.230;2023-08-21T05:43:44;20.70;99.90
11497;DHT22;5805;51.542;7.230;2023-08-21T05:46:10;20.70;99.90
11497;DHT22;5805;51.542;7.230;2023-08-21T05:48:36;20.80;99.90
11497;DHT22;5805;51.542;7.230;2023-08-21T05:51:01;20.80;99.90
11497;DHT22;5805;51.542;7.230;2023-08-21T05:53:27;20.90;99.90
11497;DHT22;5805;51.542;7.230;2023-08-21T05:55:53;21.00;99.90
11497;DHT22;5805;51.542;7.230;2023-08-21T05:58:20;20.90;99.90
11497;DHT22;5805;51.542;7.230;2023-08-21T06:00:47;20.90;99.90
11497;DHT22;5805;51.542;7.230;2023-08-21T06:03:13;21.00;99.90
11497;DHT22;5805;51.542;7.230;2023-08-21T06:05:38;21.10;99.90
11497;DHT22;5805;51.542;7.230;2023-08-21T06:08:04;21.20;99.90
11497;DHT22;5805;51.542;7.230;2023-08-21T06:10:31;21.40;99.90
11497;DHT22;5805;51.542;7.230;2023-08-21T06:12:57;21.60;99.90
11497;DHT22;5805;51.542;7.230;2023-08-21T06:15:24;21.80;99.90
11497;DHT22;5805;51.542;7.230;2023-08-21T06:17:49;21.90;99.90
11497;DHT22;5805;51.542;7.230;2023-08-21T06:20:15;22.10;99.90
11497;DHT22;5805;51.542;7.230;2023-08-21T06:22:41;22.20;99.90
11497;DHT22;5805;51.542;7.230;2023-08-21T06:25:08;22.20;99.90
11497;DHT22;5805;51.542;7.230;2023-08-21T06:27:33;22.30;99.90
11497;DHT22;5805;51.542;7.230;2023-08-21T06:29:59;22.50;99.90
11497;DHT22;5805;51.542;7.230;2023-08-21T06:32:26;22.50;99.90
11497;DHT22;5805;51.542;7.230;2023-08-21T06:34:52;22.60;99.90
11497;DHT22;5805;51.542;7.230;2023-08-21T06:37:18;22.70;99.90
11497;DHT22;5805;51.542;7.230;2023-08-21T06:39:43;22.70;99.90
11497;DHT22;5805;51.542;7.230;2023-08-21T06:42:09;22.80;99.90
11497;DHT22;5805;51.542;7.230;2023-08-21T06:44:35;22.90;99.90
11497;DHT22;5805;51.542;7.230;2023-08-21T06:47:00;22.70;99.90
11497;DHT22;5805;51.542;7.230;2023-08-21T06:49:27;22.60;99.90
11497;DHT22;5805;51.542;7.230;2023-08-21T06:51:53;22.60;99.90
11497;DHT22;5805;51.542;7.230;2023-08-21T06:54:19;22.60;99.90
11497;DHT22;5805;51.542;7.230;2023-08-21T06:56:44;22.50;99.90
11497;DHT22;5805;51.542;7.230;2023-08-21T06:59:10;22.60;99.90
11497;DHT22;5805;51.542;7.230;2023-08-21T07:01:36;22.70;99.90
11497;DHT22;5805;51.542;7.230;2023-08-21T07:04:02;22.80;99.90
11497;DHT22;5805;51.542;7.230;2023-08-21T07:06:29;22.70;99.90
11497;DHT22;5805;51.542;7.230;2023-08-21T07:08:55;22.80;99.90
11497;DHT22;5805;51.542;7.230;2023-08-21T07:11:21;22.90;99.90
11497;DHT22;5805;51.542;7.230;2023-08-21T07:13:46;23.10;99.90
11497;DHT22;5805;51.542;7.230;2023-08-21T07:16:12;23.30;99.90
11497;DHT22;5805;51.542;7.230;2023-08-21T07:18:38;23.50;99.90
11497;DHT22;5805;51.542;7.230;2023-08-21T07:21:04;23.60;99.90
11497;DHT22;5805;51.542;7.230;2023-08-21T07:23:31;23.70;99.90
11497;DHT22;5805;51.542;7.230;2023-08-21T07:25:57;24.00;99.90
11497;DHT22;5805;51.542;7.230;2023-08-21T07:28:23;24.30;99.90
11497;DHT22;5805;51.542;7.230;2023-08-21T07:30:54;24.60;99.90
11497;DHT22;5805;51.542;7.230;2023-08-21T07:33:20;24.80;99.90
11497;DHT22;5805;51.542;7.230;2023-08-21T07:35:46;24.80;99.90
11497;DHT22;5805;51.542;7.230;2023-08-21T07:38:12;24.80;99.90
11497;DHT22;5805;51.542;7.230;2023-08-21T07:40:39;24.90;99.90
11497;DHT22;5805;51.542;7.230;2023-08-21T07:43:04;25.10;99.90
11497;DHT22;5805;51.542;7.230;2023-08-21T07:45:30;25.20;99.90
11497;DHT22;5805;51.542;7.230;2023-08-21T07:47:56;25.10;99.90
11497;DHT22;5805;51.542;7.230;2023-08-21T07:50:21;25.30;98.70
11497;DHT22;5805;51.542;7.230;2023-08-21T07:52:47;25.20;99.00
11497;DHT22;5805;51.542;7.230;2023-08-21T07:55:13;25.30;98.70
11497;DHT22;5805;51.542;7.230;2023-08-21T07:57:40;25.30;99.50
11497;DHT22;5805;51.542;7.230;2023-08-21T08:00:06;25.20;98.20
11497;DHT22;5805;51.542;7.230;2023-08-21T08:02:32;25.20;97.90
11497;DHT22;5805;51.542;7.230;2023-08-21T08:04:58;25.00;98.00
11497;DHT22;5805;51.542;7.230;2023-08-21T08:07:23;25.00;99.30
11497;DHT22;5805;51.542;7.230;2023-08-21T08:09:49;25.00;99.90
11497;DHT22;5805;51.542;7.230;2023-08-21T08:12:15;24.90;99.90
11497;DHT22;5805;51.542;7.230;2023-08-21T08:14:42;24.80;99.90
11497;DHT22;5805;51.542;7.230;2023-08-21T08:17:08;24.80;99.90
11497;DHT22;5805;51.542;7.230;2023-08-21T08:19:34;24.80;99.90
11497;DHT22;5805;51.542;7.230;2023-08-21T08:21:59;24.70;99.90
11497;DHT22;5805;51.542;7.230;2023-08-21T08:24:25;24.80;99.90
11497;DHT22;5805;51.542;7.230;2023-08-21T08:26:51;25.00;99.90
11497;DHT22;5805;51.542;7.230;2023-08-21T08:29:16;25.20;99.90
11497;DHT22;5805;51.542;7.230;2023-08-21T08:31:43;25.40;99.90
11497;DHT22;5805;51.542;7.230;2023-08-21T08:34:09;25.60;99.20
11497;DHT22;5805;51.542;7.230;2023-08-21T08:36:35;25.70;98.90
11497;DHT22;5805;51.542;7.230;2023-08-21T08:39:01;25.90;97.20
11497;DHT22;5805;51.542;7.230;2023-08-21T08:41:37;25.90;95.60
11497;DHT22;5805;51.542;7.230;2023-08-21T08:44:04;26.00;95.10
11497;DHT22;5805;51.542;7.230;2023-08-21T08:46:30;26.20;95.60
11497;DHT22;5805;51.542;7.230;2023-08-21T08:48:57;26.70;94.90
11497;DHT22;5805;51.542;7.230;2023-08-21T08:51:24;27.10;94.30
11497;DHT22;5805;51.542;7.230;2023-08-21T08:53:50;27.30;92.80
11497;DHT22;5805;51.542;7.230;2023-08-21T08:56:16;27.40;92.90
11497;DHT22;5805;51.542;7.230;2023-08-21T08:58:42;27.40;92.80
11497;DHT22;5805;51.542;7.230;2023-08-21T09:01:07;27.40;94.20
11497;DHT22;5805;51.542;7.230;2023-08-21T09:03:33;27.30;92.90
11497;DHT22;5805;51.542;7.230;2023-08-21T09:06:00;27.30;92.90
11497;DHT22;5805;51.542;7.230;2023-08-21T09:08:26;27.30;93.10
11497;DHT22;5805;51.542;7.230;2023-08-21T09:10:54;27.20;93.30
11497;DHT22;5805;51.542;7.230;2023-08-21T09:13:19;27.30;94.30
11497;DHT22;5805;51.542;7.230;2023-08-21T09:15:46;27.30;94.40
11497;DHT22;5805;51.542;7.230;2023-08-21T09:18:13;27.50;94.90
11497;DHT22;5805;51.542;7.230;2023-08-21T09:20:39;27.40;91.90
11497;DHT22;5805;51.542;7.230;2023-08-21T09:23:06;27.30;91.00
11497;DHT22;5805;51.542;7.230;2023-08-21T09:25:35;27.30;92.80
11497;DHT22;5805;51.542;7.230;2023-08-21T09:28:04;27.40;90.80
11497;DHT22;5805;51.542;7.230;2023-08-21T09:30:30;27.40;90.30
11497;DHT22;5805;51.542;7.230;2023-08-21T09:33:08;27.40;91.80
11497;DHT22;5805;51.542;7.230;2023-08-21T09:35:34;27.60;91.80
11497;DHT22;5805;51.542;7.230;2023-08-21T09:37:59;27.70;90.70
11497;DHT22;5805;51.542;7.230;2023-08-21T09:40:27;27.80;90.40
11497;DHT22;5805;51.542;7.230;2023-08-21T09:42:53;27.90;91.60
11497;DHT22;5805;51.542;7.230;2023-08-21T09:45:20;28.00;89.50
11497;DHT22;5805;51.542;7.230;2023-08-21T09:47:46;28.00;86.80
11497;DHT22;5805;51.542;7.230;2023-08-21T09:50:12;28.10;89.90
11497;DHT22;5805;51.542;7.230;2023-08-21T09:52:38;28.30;87.30
11497;DHT22;5805;51.542;7.230;2023-08-21T09:55:05;28.30;85.90
11497;DHT22;5805;51.542;7.230;2023-08-21T09:57:33;28.20;87.70
11497;DHT22;5805;51.542;7.230;2023-08-21T09:59:59;28.50;89.10
11497;DHT22;5805;51.542;7.230;2023-08-21T10:02:28;28.90;90.10
11497;DHT22;5805;51.542;7.230;2023-08-21T10:04:54;29.40;87.50
11497;DHT22;5805;51.542;7.230;2023-08-21T10:07:21;29.80;83.90
11497;DHT22;5805;51.542;7.230;2023-08-21T10:09:48;30.10;79.30
11497;DHT22;5805;51.542;7.230;2023-08-21T10:12:16;30.30;74.10
11497;DHT22;5805;51.542;7.230;2023-08-21T10:14:44;30.30;69.50
11497;DHT22;5805;51.542;7.230;2023-08-21T10:17:10;30.20;68.40
11497;DHT22;5805;51.542;7.230;2023-08-21T10:19:36;30.20;69.10
11497;DHT22;5805;51.542;7.230;2023-08-21T10:22:01;30.10;67.40
11497;DHT22;5805;51.542;7.230;2023-08-21T10:24:27;29.90;67.00
11497;DHT22;5805;51.542;7.230;2023-08-21T10:26:53;29.80;67.20
11497;DHT22;5805;51.542;7.230;2023-08-21T10:29:19;29.80;67.90
11497;DHT22;5805;51.542;7.230;2023-08-21T10:31:46;29.70;67.40
11497;DHT22;5805;51.542;7.230;2023-08-21T10:34:31;29.80;68.00
11497;DHT22;5805;51.542;7.230;2023-08-21T10:37:08;29.90;68.10
11497;DHT22;5805;51.542;7.230;2023-08-21T10:39:34;29.80;69.00
11497;DHT22;5805;51.542;7.230;2023-08-21T10:42:01;29.80;70.10
11497;DHT22;5805;51.542;7.230;2023-08-21T10:44:35;30.00;69.40
11497;DHT22;5805;51.542;7.230;2023-08-21T10:47:15;30.20;67.70
11497;DHT22;5805;51.542;7.230;2023-08-21T10:49:41;30.30;67.10
11497;DHT22;5805;51.542;7.230;2023-08-21T10:52:08;30.00;66.30
11497;DHT22;5805;51.542;7.230;2023-08-21T10:54:43;29.80;67.40
11497;DHT22;5805;51.542;7.230;2023-08-21T10:57:09;29.60;67.80
11497;DHT22;5805;51.542;7.230;2023-08-21T10:59:35;29.70;68.00
11497;DHT22;5805;51.542;7.230;2023-08-21T11:02:00;29.70;68.40
11497;DHT22;5805;51.542;7.230;2023-08-21T11:04:27;29.70;69.30
11497;DHT22;5805;51.542;7.230;2023-08-21T11:06:54;29.70;67.80
11497;DHT22;5805;51.542;7.230;2023-08-21T11:09:20;29.70;68.50
11497;DHT22;5805;51.542;7.230;2023-08-21T11:11:45;29.90;69.70
11497;DHT22;5805;51.542;7.230;2023-08-21T11:14:11;30.00;68.80
11497;DHT22;5805;51.542;7.230;2023-08-21T11:16:37;29.90;66.40
11497;DHT22;5805;51.542;7.230;2023-08-21T11:19:03;29.80;65.80
11497;DHT22;5805;51.542;7.230;2023-08-21T11:21:31;29.80;65.90
11497;DHT22;5805;51.542;7.230;2023-08-21T11:23:56;29.60;66.30
11497;DHT22;5805;51.542;7.230;2023-08-21T11:26:22;29.50;67.20
11497;DHT22;5805;51.542;7.230;2023-08-21T11:28:50;29.30;67.60
11497;DHT22;5805;51.542;7.230;2023-08-21T11:31:16;29.20;69.20
11497;DHT22;5805;51.542;7.230;2023-08-21T11:33:49;29.10;70.40
11497;DHT22;5805;51.542;7.230;2023-08-21T11:36:14;29.20;71.40
11497;DHT22;5805;51.542;7.230;2023-08-21T11:38:42;29.20;69.60
11497;DHT22;5805;51.542;7.230;2023-08-21T11:41:07;29.30;69.50
11497;DHT22;5805;51.542;7.230;2023-08-21T11:43:37;29.20;69.10
11497;DHT22;5805;51.542;7.230;2023-08-21T11:46:03;29.20;68.00
11497;DHT22;5805;51.542;7.230;2023-08-21T11:48:30;29.20;70.00
11497;DHT22;5805;51.542;7.230;2023-08-21T11:50:55;29.20;70.70
11497;DHT22;5805;51.542;7.230;2023-08-21T11:53:31;29.40;70.70
11497;DHT22;5805;51.542;7.230;2023-08-21T11:55:59;29.60;70.70
11497;DHT22;5805;51.542;7.230;2023-08-21T11:58:26;29.60;70.80
11497;DHT22;5805;51.542;7.230;2023-08-21T12:00:52;29.90;68.50
11497;DHT22;5805;51.542;7.230;2023-08-21T12:03:18;30.10;68.00
11497;DHT22;5805;51.542;7.230;2023-08-21T12:05:44;30.30;65.40
11497;DHT22;5805;51.542;7.230;2023-08-21T12:08:10;30.30;64.60
11497;DHT22;5805;51.542;7.230;2023-08-21T12:10:36;30.40;64.20
11497;DHT22;5805;51.542;7.230;2023-08-21T12:13:03;30.30;64.80
11497;DHT22;5805;51.542;7.230;2023-08-21T12:15:29;30.20;65.00
11497;DHT22;5805;51.542;7.230;2023-08-21T12:17:55;30.00;63.50
11497;DHT22;5805;51.542;7.230;2023-08-21T12:20:20;29.80;66.80
11497;DHT22;5805;51.542;7.230;2023-08-21T12:22:46;29.70;67.70
11497;DHT22;5805;51.542;7.230;2023-08-21T12:25:13;29.80;69.20
11497;DHT22;5805;51.542;7.230;2023-08-21T12:27:39;29.80;69.20
11497;DHT22;5805;51.542;7.230;2023-08-21T12:30:07;29.70;67.60
11497;DHT22;5805;51.542;7.230;2023-08-21T12:32:33;29.60;66.70
11497;DHT22;5805;51.542;7.230;2023-08-21T12:34:58;29.60;67.40
11497;DHT22;5805;51.542;7.230;2023-08-21T12:37:24;29.70;68.60
11497;DHT22;5805;51.542;7.230;2023-08-21T12:39:50;29.70;68.00
11497;DHT22;5805;51.542;7.230;2023-08-21T12:42:15;29.70;69.90
11497;DHT22;5805;51.542;7.230;2023-08-21T12:44:41;29.80;69.40
11497;DHT22;5805;51.542;7.230;2023-08-21T12:47:08;29.90;68.10
11497;DHT22;5805;51.542;7.230;2023-08-21T12:49:34;29.80;66.10
11497;DHT22;5805;51.542;7.230;2023-08-21T12:51:59;29.60;66.80
11497;DHT22;5805;51.542;7.230;2023-08-21T12:54:25;29.60;68.10
11497;DHT22;5805;51.542;7.230;2023-08-21T12:56:51;29.80;68.10
11497;DHT22;5805;51.542;7.230;2023-08-21T12:59:16;29.70;67.30
11497;DHT22;5805;51.542;7.230;2023-08-21T13:01:42;29.70;67.00
11497;DHT22;5805;51.542;7.230;2023-08-21T13:04:09;29.70;68.00
11497;DHT22;5805;51.542;7.230;2023-08-21T13:06:35;29.70;68.30
11497;DHT22;5805;51.542;7.230;2023-08-21T13:09:00;29.70;67.20
11497;DHT22;5805;51.542;7.230;2023-08-21T13:11:26;29.60;67.50
11497;DHT22;5805;51.542;7.230;2023-08-21T13:13:52;29.60;67.60
11497;DHT22;5805;51.542;7.230;2023-08-21T13:16:17;29.60;68.60
11497;DHT22;5805;51.542;7.230;2023-08-21T13:18:43;29.70;69.40
11497;DHT22;5805;51.542;7.230;2023-08-21T13:21:10;29.80;69.50
11497;DHT22;5805;51.542;7.230;2023-08-21T13:23:36;29.80;69.50
11497;DHT22;5805;51.542;7.230;2023-08-21T13:26:01;29.70;68.00
11497;DHT22;5805;51.542;7.230;2023-08-21T13:28:27;29.70;68.90
11497;DHT22;5805;51.542;7.230;2023-08-21T13:30:53;29.80;68.90
11497;DHT22;5805;51.542;7.230;2023-08-21T13:33:19;29.90;69.00
11497;DHT22;5805;51.542;7.230;2023-08-21T13:35:45;29.90;66.40
11497;DHT22;5805;51.542;7.230;2023-08-21T13:38:12;29.70;66.40
11497;DHT22;5805;51.542;7.230;2023-08-21T13:40:38;29.60;66.70
11497;DHT22;5805;51.542;7.230;2023-08-21T13:43:03;29.60;67.30
11497;DHT22;5805;51.542;7.230;2023-08-21T13:45:29;29.70;68.00
11497;DHT22;5805;51.542;7.230;2023-08-21T13:47:55;29.60;69.60
11497;DHT22;5805;51.542;7.230;2023-08-21T13:50:20;29.50;67.80
11497;DHT22;5805;51.542;7.230;2023-08-21T13:52:47;29.50;67.90
11497;DHT22;5805;51.542;7.230;2023-08-21T13:55:14;29.50;69.10
11497;DHT22;5805;51.542;7.230;2023-08-21T13:57:40;29.50;70.20
11497;DHT22;5805;51.542;7.230;2023-08-21T14:00:08;29.40;69.10
11497;DHT22;5805;51.542;7.230;2023-08-21T14:02:34;29.40;68.70
11497;DHT22;5805;51.542;7.230;2023-08-21T14:05:00;29.40;69.20
11497;DHT22;5805;51.542;7.230;2023-08-21T14:07:26;29.50;70.80
11497;DHT22;5805;51.542;7.230;2023-08-21T14:09:51;29.60;70.70
11497;DHT22;5805;51.542;7.230;2023-08-21T14:12:19;29.70;70.60
11497;DHT22;5805;51.542;7.230;2023-08-21T14:14:44;29.60;67.70
11497;DHT22;5805;51.542;7.230;2023-08-21T14:17:10;29.60;68.60
11497;DHT22;5805;51.542;7.230;2023-08-21T14:19:36;29.50;67.20
11497;DHT22;5805;51.542;7.230;2023-08-21T14:22:02;29.40;68.60
11497;DHT22;5805;51.542;7.230;2023-08-21T14:24:27;29.40;69.00
11497;DHT22;5805;51.542;7.230;2023-08-21T14:26:53;29.20;67.40
11497;DHT22;5805;51.542;7.230;2023-08-21T14:29:20;29.00;68.80
11497;DHT22;5805;51.542;7.230;2023-08-21T14:31:46;28.90;70.20
11497;DHT22;5805;51.542;7.230;2023-08-21T14:34:12;28.90;69.20
11497;DHT22;5805;51.542;7.230;2023-08-21T14:36:37;29.00;71.80
11497;DHT22;5805;51.542;7.230;2023-08-21T14:39:03;29.10;73.30
11497;DHT22;5805;51.542;7.230;2023-08-21T14:41:29;29.20;74.50
11497;DHT22;5805;51.542;7.230;2023-08-21T14:43:54;29.20;73.40
11497;DHT22;5805;51.542;7.230;2023-08-21T14:46:21;29.20;73.10
11497;DHT22;5805;51.542;7.230;2023-08-21T14:48:47;29.20;73.90
11497;DHT22;5805;51.542;7.230;2023-08-21T14:51:13;29.20;73.40
11497;DHT22;5805;51.542;7.230;2023-08-21T14:53:38;29.30;72.00
11497;DHT22;5805;51.542;7.230;2023-08-21T14:56:04;29.20;72.50
11497;DHT22;5805;51.542;7.230;2023-08-21T14:58:30;29.20;72.00
11497;DHT22;5805;51.542;7.230;2023-08-21T15:00:56;29.10;71.20
11497;DHT22;5805;51.542;7.230;2023-08-21T15:03:23;29.10;71.90
11497;DHT22;5805;51.542;7.230;2023-08-21T15:05:48;29.20;72.90
11497;DHT22;5805;51.542;7.230;2023-08-21T15:08:14;29.30;76.20
11497;DHT22;5805;51.542;7.230;2023-08-21T15:10:40;29.30;70.80
11497;DHT22;5805;51.542;7.230;2023-08-21T15:13:05;29.30;70.50
11497;DHT22;5805;51.542;7.230;2023-08-21T15:15:31;29.30;73.30
11497;DHT22;5805;51.542;7.230;2023-08-21T15:17:57;29.40;71.50
11497;DHT22;5805;51.542;7.230;2023-08-21T15:20:24;29.40;72.00
11497;DHT22;5805;51.542;7.230;2023-08-21T15:22:50;29.40;73.60
11497;DHT22;5805;51.542;7.230;2023-08-21T15:25:15;29.40;73.20
11497;DHT22;5805;51.542;7.230;2023-08-21T15:27:41;29.30;71.40
11497;DHT22;5805;51.542;7.230;2023-08-21T15:30:07;29.20;72.20
11497;DHT22;5805;51.542;7.230;2023-08-21T15:32:33;29.20;71.70
11497;DHT22;5805;51.542;7.230;2023-08-21T15:34:59;29.10;71.60
11497;DHT22;5805;51.542;7.230;2023-08-21T15:37:26;29.20;72.60
11497;DHT22;5805;51.542;7.230;2023-08-21T15:39:52;29.20;73.00